createdAt,value
2022-10-23T00:01:27.071Z,100818.75
2022-10-23T00:03:58.103Z,100826.91
2022-10-23T00:06:26.811Z,100827.59
2022-10-23T00:08:53.408Z,100820.16
2022-10-23T00:11:23.796Z,100834.34
2022-10-23T00:13:53.447Z,100831.53
2022-10-23T00:16:20.139Z,100829.44
2022-10-23T00:18:46.842Z,100807.88
2022-10-23T00:21:15.648Z,100835.31
2022-10-23T00:23:43.536Z,100812.97
2022-10-23T00:26:16.497Z,100830.19
2022-10-23T00:28:49.833Z,100836.84
2022-10-23T00:31:17.360Z,100831.66
2022-10-23T00:33:44.816Z,100853.13
2022-10-23T00:36:14.286Z,100853.84
2022-10-23T00:38:40.995Z,100832.22
2022-10-23T00:41:20.220Z,100857.16
2022-10-23T00:44:07.103Z,100854.09
2022-10-23T00:46:34.821Z,100857.53
2022-10-23T00:49:02.623Z,100842.91
2022-10-23T00:51:33.790Z,100840.84
2022-10-23T00:54:22.855Z,100858.59
2022-10-23T00:56:49.633Z,100844.72
2022-10-23T00:59:16.354Z,100866.16
2022-10-23T01:01:43.248Z,100802.34
2022-10-23T01:04:10.935Z,100855.59
2022-10-23T01:06:57.707Z,100851.47
2022-10-23T01:09:31.174Z,100856.41
2022-10-23T01:12:03.188Z,100865.81
2022-10-23T01:14:40.532Z,100863.88
2022-10-23T01:17:19.279Z,100864.72
2022-10-23T01:19:55.292Z,100866.38
2022-10-23T01:22:43.787Z,100868.09
2022-10-23T01:25:41.645Z,100863.94
2022-10-23T01:28:16.211Z,100876.75
2022-10-23T01:30:45.693Z,100857.91
2022-10-23T01:33:21.755Z,100865.38
2022-10-23T01:36:04.659Z,100863.59
2022-10-23T01:38:56.389Z,100862.69
2022-10-23T01:41:26.069Z,100871.34
2022-10-23T01:43:59.425Z,100872.91
2022-10-23T01:46:28.491Z,100880.53
2022-10-23T01:48:57.592Z,100883.25
2022-10-23T01:51:27.320Z,100884.53
2022-10-23T01:53:59.371Z,100877.34
2022-10-23T01:56:33.781Z,100857.47
2022-10-23T01:59:05.691Z,100849.75
2022-10-23T02:01:35.139Z,100822.94
2022-10-23T02:04:07.070Z,100845.44
2022-10-23T02:06:33.792Z,100855.50
2022-10-23T02:09:00.462Z,100863.94
2022-10-23T02:11:27.201Z,100840.56
2022-10-23T02:14:03.991Z,100870.03
2022-10-23T02:16:30.554Z,100869.97
2022-10-23T02:18:59.874Z,100860.44
2022-10-23T02:21:38.611Z,100851.03
2022-10-23T02:24:13.820Z,100832.28
2022-10-23T02:26:45.998Z,100860.75
2022-10-23T02:29:36.777Z,100857.34
2022-10-23T02:32:04.701Z,100839.53
2022-10-23T02:34:31.576Z,100853.91
2022-10-23T02:36:58.187Z,100858.41
2022-10-23T02:39:28.378Z,100848.44
2022-10-23T02:42:32.394Z,100855.28
2022-10-23T02:45:36.711Z,100878.13
2022-10-23T02:48:15.347Z,100877.03
2022-10-23T02:50:49.396Z,100882.38
2022-10-23T02:54:00.552Z,100881.59
2022-10-23T02:56:32.618Z,100885.94
2022-10-23T02:59:09.891Z,100881.72
2022-10-23T03:01:49.066Z,100884.22
2022-10-23T03:04:17.774Z,100876.25
2022-10-23T03:06:45.193Z,100887.97
2022-10-23T03:09:11.820Z,100882.69
2022-10-23T03:11:38.420Z,100908.59
2022-10-23T03:14:05.060Z,100902.56
2022-10-23T03:16:31.671Z,100915.59
2022-10-23T03:18:58.378Z,100904.28
2022-10-23T03:21:25.131Z,100889.88
2022-10-23T03:23:51.858Z,100900.72
2022-10-23T03:26:18.443Z,100919.59
2022-10-23T03:28:45.085Z,100891.31
2022-10-23T03:31:11.759Z,100925.00
2022-10-23T03:33:38.526Z,100927.91
2022-10-23T03:36:05.948Z,100891.81
2022-10-23T03:38:33.036Z,100912.63
2022-10-23T03:40:59.646Z,100890.00
2022-10-23T03:43:26.258Z,100888.72
2022-10-23T03:45:52.936Z,100909.00
2022-10-23T03:48:19.517Z,100912.81
2022-10-23T03:50:46.146Z,100929.28
2022-10-23T03:53:12.766Z,100918.41
2022-10-23T03:55:39.440Z,100906.97
2022-10-23T03:58:06.024Z,100926.34
2022-10-23T04:00:32.750Z,100909.78
2022-10-23T04:02:59.379Z,100927.91
2022-10-23T04:05:26.035Z,100914.66
2022-10-23T04:07:53.183Z,100918.97
2022-10-23T04:10:19.815Z,100916.22
2022-10-23T04:12:46.415Z,100925.66
2022-10-23T04:15:13.034Z,100920.16
2022-10-23T04:17:39.694Z,100941.25
2022-10-23T04:20:06.501Z,100918.25
2022-10-23T04:22:33.972Z,100931.41
2022-10-23T04:25:03.999Z,100930.56
2022-10-23T04:27:30.636Z,100935.47
2022-10-23T04:29:59.091Z,100958.47
2022-10-23T04:32:26.210Z,100937.72
2022-10-23T04:34:52.822Z,100934.44
2022-10-23T04:37:19.793Z,100913.72
2022-10-23T04:39:49.380Z,100938.28
2022-10-23T04:42:16.008Z,100881.41
2022-10-23T04:44:42.661Z,100935.84
2022-10-23T04:47:09.263Z,100937.22
2022-10-23T04:49:35.855Z,100923.47
2022-10-23T04:52:02.649Z,100924.47
2022-10-23T04:54:29.215Z,100931.16
2022-10-23T04:56:55.824Z,100933.56
2022-10-23T04:59:22.475Z,100944.66
2022-10-23T05:01:49.099Z,100944.22
2022-10-23T05:04:15.732Z,100905.63
2022-10-23T05:06:43.593Z,100953.03
2022-10-23T05:09:10.241Z,100937.41
2022-10-23T05:11:36.903Z,100934.16
2022-10-23T05:14:03.510Z,100951.75
2022-10-23T05:16:42.424Z,100940.97
2022-10-23T05:19:13.078Z,100964.59
2022-10-23T05:21:42.614Z,100941.66
2022-10-23T05:24:10.691Z,100965.25
2022-10-23T05:26:37.468Z,100943.13
2022-10-23T05:29:04.063Z,100957.94
2022-10-23T05:31:32.000Z,100942.47
2022-10-23T05:33:58.591Z,100947.03
2022-10-23T05:36:26.080Z,100923.97
2022-10-23T05:38:53.497Z,100944.25
2022-10-23T05:41:21.064Z,100969.28
2022-10-23T05:43:47.962Z,100951.31
2022-10-23T05:46:14.613Z,100966.38
2022-10-23T05:48:41.267Z,100959.44
2022-10-23T05:51:10.297Z,100984.84
2022-10-23T05:53:40.132Z,100941.06
2022-10-23T05:56:09.676Z,100994.72
2022-10-23T05:58:36.753Z,100961.06
2022-10-23T06:01:08.895Z,100959.72
2022-10-23T06:03:36.507Z,100993.25
2022-10-23T06:06:04.010Z,100993.97
2022-10-23T06:08:32.367Z,100982.28
2022-10-23T06:10:59.618Z,100986.59
2022-10-23T06:13:26.184Z,101003.97
2022-10-23T06:15:52.760Z,100958.91
2022-10-23T06:18:19.612Z,101004.81
2022-10-23T06:20:46.220Z,101003.25
2022-10-23T06:23:12.870Z,100976.84
2022-10-23T06:25:40.395Z,100991.31
2022-10-23T06:28:06.976Z,100951.19
2022-10-23T06:30:33.650Z,100985.28
2022-10-23T06:33:03.261Z,100979.63
2022-10-23T06:35:32.827Z,100987.56
2022-10-23T06:37:59.415Z,100997.53
2022-10-23T06:40:26.194Z,101005.84
2022-10-23T06:42:52.811Z,100974.13
2022-10-23T06:45:19.407Z,100990.53
2022-10-23T06:47:46.296Z,101001.34
2022-10-23T06:50:15.502Z,100988.84
2022-10-23T06:52:47.058Z,101000.63
2022-10-23T06:55:14.972Z,101006.66
2022-10-23T06:57:42.274Z,101000.91
2022-10-23T07:00:13.114Z,101003.03
2022-10-23T07:02:39.881Z,101011.66
2022-10-23T07:05:08.818Z,101015.94
2022-10-23T07:07:39.343Z,101006.09
2022-10-23T07:10:06.777Z,101003.28
2022-10-23T07:12:33.592Z,101009.09
2022-10-23T07:15:00.206Z,101012.13
2022-10-23T07:17:30.796Z,101015.78
2022-10-23T07:19:57.550Z,101029.50
2022-10-23T07:22:24.148Z,101027.97
2022-10-23T07:24:50.788Z,100979.06
2022-10-23T07:27:17.499Z,101031.78
2022-10-23T07:29:44.103Z,101032.59
2022-10-23T07:32:11.497Z,101025.88
2022-10-23T07:34:38.280Z,101012.25
2022-10-23T07:37:04.912Z,100982.94
2022-10-23T07:39:31.572Z,101000.66
2022-10-23T07:41:58.233Z,101003.00
2022-10-23T07:44:27.638Z,101004.91
2022-10-23T07:46:54.570Z,101022.25
2022-10-23T07:49:21.135Z,101016.94
2022-10-23T07:51:51.280Z,101006.66
2022-10-23T07:54:18.751Z,100992.06
2022-10-23T07:56:45.431Z,101001.34
2022-10-23T07:59:13.296Z,101013.19
2022-10-23T08:01:42.588Z,101024.56
2022-10-23T08:04:10.743Z,101018.59
2022-10-23T08:06:37.447Z,101005.47
2022-10-23T08:09:06.532Z,101022.81
2022-10-23T08:11:35.751Z,101016.47
2022-10-23T08:14:04.766Z,101013.53
2022-10-23T08:16:34.952Z,101014.28
2022-10-23T08:19:02.126Z,101021.88
2022-10-23T08:21:30.060Z,101018.19
2022-10-23T08:23:58.629Z,101019.53
2022-10-23T08:26:29.323Z,101020.28
2022-10-23T08:28:58.458Z,101015.84
2022-10-23T08:31:25.466Z,101018.56
2022-10-23T08:33:52.076Z,101013.84
2022-10-23T08:36:22.035Z,101005.59
2022-10-23T08:38:49.369Z,101010.81
2022-10-23T08:41:38.775Z,101021.03
2022-10-23T08:44:31.028Z,101015.06
2022-10-23T08:47:03.824Z,101017.03
2022-10-23T08:49:42.288Z,101027.97
2022-10-23T08:52:32.001Z,101032.97
2022-10-23T08:55:29.292Z,101041.91
2022-10-23T08:57:59.339Z,101043.34
2022-10-23T09:00:28.224Z,101046.41
2022-10-23T09:02:55.612Z,101046.66
2022-10-23T09:05:31.800Z,101049.59
2022-10-23T09:08:42.823Z,101042.63
2022-10-23T09:11:19.567Z,101045.47
2022-10-23T09:14:02.495Z,101044.66
2022-10-23T09:16:41.007Z,101038.34
2022-10-23T09:19:19.492Z,101036.13
2022-10-23T09:21:49.953Z,101016.44
2022-10-23T09:24:19.569Z,101026.06
2022-10-23T09:26:50.517Z,101010.78
2022-10-23T09:29:31.906Z,101033.97
2022-10-23T09:32:00.971Z,101028.81
2022-10-23T09:34:29.997Z,101032.47
2022-10-23T09:37:27.760Z,101019.81
2022-10-23T09:40:27.337Z,101016.88
2022-10-23T09:43:00.780Z,101002.88
2022-10-23T09:45:33.213Z,101025.88
2022-10-23T09:48:05.895Z,101025.75
2022-10-23T09:50:32.526Z,101032.13
2022-10-23T09:52:59.546Z,101009.06
2022-10-23T09:55:27.912Z,101018.97
2022-10-23T09:57:55.644Z,101026.88
2022-10-23T10:00:28.771Z,101026.50
2022-10-23T10:03:04.787Z,101024.09
2022-10-23T10:05:34.119Z,101018.50
2022-10-23T10:08:08.006Z,100994.28
2022-10-23T10:10:48.154Z,100999.00
2022-10-23T10:13:38.277Z,101015.13
2022-10-23T10:16:16.299Z,101008.78
2022-10-23T10:18:48.815Z,101004.28
2022-10-23T10:24:06.904Z,100988.78
2022-10-23T10:26:41.659Z,100997.09
2022-10-23T10:29:34.531Z,100995.13
2022-10-23T10:32:37.939Z,100971.06
2022-10-23T10:35:16.683Z,100983.25
2022-10-23T10:37:54.562Z,100979.28
2022-10-23T10:40:35.441Z,100980.94
2022-10-23T10:43:13.911Z,100967.28
2022-10-23T10:46:11.032Z,100970.13
2022-10-23T10:48:49.534Z,100967.38
2022-10-23T10:51:32.942Z,100946.84
2022-10-23T10:54:18.960Z,100950.75
2022-10-23T10:56:47.685Z,100932.31
2022-10-23T10:59:30.512Z,100935.44
2022-10-23T11:02:12.735Z,100949.81
2022-10-23T11:05:18.020Z,100950.59
2022-10-23T11:08:00.599Z,100934.28
2022-10-23T11:10:28.964Z,100956.69
2022-10-23T11:12:56.947Z,100963.97
2022-10-23T11:15:29.140Z,100945.91
2022-10-23T11:18:01.955Z,100937.53
2022-10-23T11:20:58.107Z,100949.75
2022-10-23T11:23:55.611Z,100946.63
2022-10-23T11:26:35.263Z,100944.31
2022-10-23T11:29:10.618Z,100945.94
2022-10-23T11:31:54.346Z,100933.56
2022-10-23T11:34:35.878Z,100931.44
2022-10-23T11:37:12.231Z,100929.53
2022-10-23T11:39:39.693Z,100914.31
2022-10-23T11:42:06.288Z,100926.56
2022-10-23T11:44:46.519Z,100931.53
2022-10-23T11:47:40.051Z,100930.94
2022-10-23T11:50:07.711Z,100929.81
2022-10-23T11:52:50.316Z,100927.91
2022-10-23T11:55:20.946Z,100899.53
2022-10-23T11:58:12.247Z,100925.44
2022-10-23T12:00:51.536Z,100915.63
2022-10-23T12:03:26.118Z,100909.34
2022-10-23T12:06:07.319Z,100901.94
2022-10-23T12:08:37.725Z,100908.91
2022-10-23T12:11:04.390Z,100884.69
2022-10-23T12:13:38.193Z,100899.81
2022-10-23T12:16:07.543Z,100892.13
2022-10-23T12:18:46.438Z,100896.19
2022-10-23T12:21:22.758Z,100894.72
2022-10-23T12:24:39.919Z,100896.88
2022-10-23T12:27:09.567Z,100892.69
2022-10-23T12:29:36.796Z,100887.34
2022-10-23T12:32:22.272Z,100889.91
2022-10-23T12:35:03.831Z,100911.72
2022-10-23T12:38:05.538Z,100895.25
2022-10-23T12:40:32.398Z,100872.50
2022-10-23T12:43:01.039Z,100847.47
2022-10-23T12:45:31.978Z,100884.78
2022-10-23T12:47:58.581Z,100852.78
2022-10-23T12:50:34.568Z,100865.06
2022-10-23T12:53:03.996Z,100846.78
2022-10-23T12:55:46.393Z,100857.06
2022-10-23T12:58:32.006Z,100844.88
2022-10-23T13:01:01.656Z,100863.44
2022-10-23T13:03:29.935Z,100867.28
2022-10-23T13:05:59.470Z,100869.69
2022-10-23T13:08:33.942Z,100868.16
2022-10-23T13:11:00.874Z,100847.75
2022-10-23T13:13:27.960Z,100859.38
2022-10-23T13:15:54.642Z,100862.06
2022-10-23T13:18:23.542Z,100850.38
2022-10-23T13:20:55.079Z,100854.66
2022-10-23T13:23:35.489Z,100823.00
2022-10-23T13:26:21.383Z,100849.69
2022-10-23T13:28:48.159Z,100805.59
2022-10-23T13:31:14.677Z,100840.69
2022-10-23T13:34:01.051Z,100828.59
2022-10-23T13:36:35.771Z,100839.38
2022-10-23T13:39:13.252Z,100841.03
2022-10-23T13:41:41.135Z,100838.69
2022-10-23T13:44:11.760Z,100840.44
2022-10-23T13:46:39.583Z,100837.41
2022-10-23T13:49:06.301Z,100804.03
2022-10-23T13:51:42.657Z,100830.81
2022-10-23T13:54:22.090Z,100834.94
2022-10-23T13:56:49.135Z,100822.94
2022-10-23T13:59:16.097Z,100822.78
2022-10-23T14:01:43.700Z,100822.78
2022-10-23T14:04:11.410Z,100815.81
2022-10-23T14:06:38.336Z,100804.84
2022-10-23T14:09:06.935Z,100799.34
2022-10-23T14:11:35.791Z,100805.34
2022-10-23T14:14:02.404Z,100806.81
2022-10-23T14:16:32.088Z,100796.75
2022-10-23T14:18:58.771Z,100773.69
2022-10-23T14:21:25.554Z,100776.59
2022-10-23T14:23:54.051Z,100792.13
2022-10-23T14:26:27.707Z,100769.41
2022-10-23T14:28:55.827Z,100766.06
2022-10-23T14:31:23.497Z,100789.47
2022-10-23T14:33:56.414Z,100769.75
2022-10-23T14:36:24.106Z,100783.06
2022-10-23T14:38:56.852Z,100750.47
2022-10-23T14:41:24.936Z,100747.28
2022-10-23T14:43:52.099Z,100772.47
2022-10-23T14:46:21.693Z,100791.09
2022-10-23T14:48:50.979Z,100775.59
2022-10-23T14:51:28.366Z,100733.56
2022-10-23T14:54:01.494Z,100794.25
2022-10-23T14:56:33.852Z,100798.19
2022-10-23T14:59:03.932Z,100788.91
2022-10-23T15:01:42.282Z,100802.81
2022-10-23T15:04:12.014Z,100795.31
2022-10-23T15:06:38.767Z,100802.91
2022-10-23T15:09:05.636Z,100774.16
2022-10-23T15:11:32.995Z,100806.78
2022-10-23T15:14:00.318Z,100801.72
2022-10-23T15:16:27.388Z,100807.56
2022-10-23T15:18:57.049Z,100802.78
2022-10-23T15:21:24.217Z,100790.16
2022-10-23T15:23:50.924Z,100757.69
2022-10-23T15:26:22.090Z,100785.56
2022-10-23T15:28:56.754Z,100789.31
2022-10-23T15:31:41.046Z,100770.97
2022-10-23T15:34:10.398Z,100778.78
2022-10-23T15:36:37.308Z,100764.50
2022-10-23T15:39:09.035Z,100774.41
2022-10-23T15:41:37.228Z,100766.97
2022-10-23T15:44:05.989Z,100759.41
2022-10-23T15:46:33.263Z,100762.63
2022-10-23T15:48:59.926Z,100770.72
2022-10-23T15:51:27.446Z,100760.38
2022-10-23T15:53:56.925Z,100782.81
2022-10-23T15:56:24.709Z,100771.38
2022-10-23T15:58:51.374Z,100786.16
2022-10-23T16:01:18.611Z,100753.88
2022-10-23T16:03:45.611Z,100757.94
2022-10-23T16:06:14.879Z,100788.34
2022-10-23T16:08:44.300Z,100781.78
2022-10-23T16:11:19.773Z,100785.84
2022-10-23T16:13:47.667Z,100796.78
2022-10-23T16:16:14.977Z,100788.88
2022-10-23T16:18:43.725Z,100759.13
2022-10-23T16:21:21.439Z,100778.22
2022-10-23T16:23:48.887Z,100786.94
2022-10-23T16:26:16.447Z,100786.88
2022-10-23T16:28:47.090Z,100756.16
2022-10-23T16:31:20.657Z,100754.91
2022-10-23T16:33:48.802Z,100779.53
2022-10-23T16:36:16.423Z,100772.19
2022-10-23T16:38:43.197Z,100761.31
2022-10-23T16:41:10.082Z,100754.44
2022-10-23T16:43:37.049Z,100785.09
2022-10-23T16:46:24.191Z,100770.66
2022-10-23T16:48:51.831Z,100751.81
2022-10-23T16:51:22.546Z,100781.72
2022-10-23T16:53:49.628Z,100764.91
2022-10-23T16:56:18.575Z,100769.19
2022-10-23T16:58:45.369Z,100768.63
2022-10-23T17:01:16.219Z,100780.19
2022-10-23T17:03:47.817Z,100774.94
2022-10-23T17:06:17.688Z,100793.13
2022-10-23T17:08:44.469Z,100802.25
2022-10-23T17:11:19.891Z,100794.19
2022-10-23T17:14:17.605Z,100795.22
2022-10-23T17:16:47.749Z,100796.47
2022-10-23T17:19:39.730Z,100794.97
2022-10-23T17:22:02.774Z,100771.78
2022-10-23T17:24:30.507Z,100777.38
2022-10-23T17:26:57.209Z,100778.66
2022-10-23T17:29:23.872Z,100777.78
2022-10-23T17:31:51.771Z,100773.81
2022-10-23T17:34:21.570Z,100776.72
2022-10-23T17:36:49.672Z,100795.84
2022-10-23T17:39:20.083Z,100784.31
2022-10-23T17:41:47.260Z,100744.59
2022-10-23T17:44:14.274Z,100754.19
2022-10-23T17:46:40.968Z,100760.03
2022-10-23T17:49:07.680Z,100772.16
2022-10-23T17:51:37.497Z,100773.66
2022-10-23T17:54:06.117Z,100777.94
2022-10-23T17:56:34.702Z,100755.41
2022-10-23T17:59:06.868Z,100749.16
2022-10-23T18:01:33.982Z,100766.22
2022-10-23T18:04:03.690Z,100758.75
2022-10-23T18:06:41.984Z,100732.56
2022-10-23T18:09:08.619Z,100761.06
2022-10-23T18:11:37.560Z,100764.56
2022-10-23T18:14:06.852Z,100768.28
2022-10-23T18:16:35.027Z,100766.72
2022-10-23T18:19:02.155Z,100760.56
2022-10-23T18:21:28.938Z,100729.00
2022-10-23T18:23:55.598Z,100748.75
2022-10-23T18:26:28.335Z,100761.84
2022-10-23T18:28:57.570Z,100758.19
2022-10-23T18:31:27.071Z,100748.25
2022-10-23T18:33:58.783Z,100760.63
2022-10-23T18:36:28.570Z,100760.31
2022-10-23T18:41:25.122Z,100747.31
2022-10-23T18:43:52.683Z,100764.56
2022-10-23T18:46:20.508Z,100763.22
2022-10-23T18:48:53.130Z,100743.09
2022-10-23T18:51:30.979Z,100750.31
2022-10-23T18:54:00.098Z,100743.84
2022-10-23T18:56:27.826Z,100748.41
2022-10-23T18:59:00.117Z,100751.38
2022-10-23T19:01:27.778Z,100737.41
2022-10-23T19:06:23.968Z,100762.59
2022-10-23T19:08:51.070Z,100754.00
2022-10-23T19:11:21.088Z,100751.47
2022-10-23T19:13:47.920Z,100729.16
2022-10-23T19:16:18.323Z,100747.28
2022-10-23T19:18:57.762Z,100748.94
2022-10-23T19:21:31.414Z,100727.66
2022-10-23T19:24:01.835Z,100748.97
2022-10-23T19:26:30.132Z,100738.69
2022-10-23T19:28:57.494Z,100743.06
2022-10-23T19:31:26.552Z,100734.03
2022-10-23T19:33:53.598Z,100726.22
2022-10-23T19:36:23.457Z,100753.28
2022-10-23T19:38:50.521Z,100754.31
2022-10-23T19:41:18.330Z,100681.03
2022-10-23T19:43:45.200Z,100766.19
2022-10-23T19:46:12.896Z,100762.75
2022-10-23T19:48:44.444Z,100758.13
2022-10-23T19:51:13.298Z,100741.03
2022-10-23T19:53:42.296Z,100766.75
2022-10-23T19:56:11.147Z,100763.06
2022-10-23T19:58:38.539Z,100753.63
2022-10-23T20:01:11.459Z,100755.25
2022-10-23T20:03:39.700Z,100777.69
2022-10-23T20:06:10.551Z,100749.09
2022-10-23T20:08:37.448Z,100783.97
2022-10-23T20:11:04.557Z,100776.41
2022-10-23T20:13:31.175Z,100776.59
2022-10-23T20:15:57.803Z,100751.66
2022-10-23T20:18:25.920Z,100769.84
2022-10-23T20:20:53.592Z,100777.94
2022-10-23T20:23:20.233Z,100758.31
2022-10-23T20:25:47.980Z,100716.13
2022-10-23T20:28:15.320Z,100718.22
2022-10-23T20:30:44.508Z,100741.47
2022-10-23T20:33:11.248Z,100754.41
2022-10-23T20:35:40.342Z,100761.56
2022-10-23T20:38:07.667Z,100743.13
2022-10-23T20:40:34.550Z,100747.84
2022-10-23T20:43:01.147Z,100759.91
2022-10-23T20:45:27.796Z,100739.38
2022-10-23T20:47:55.483Z,100737.34
2022-10-23T20:50:23.846Z,100731.44
2022-10-23T20:52:50.893Z,100754.78
2022-10-23T20:55:17.801Z,100756.41
2022-10-23T20:57:44.747Z,100750.97
2022-10-23T21:00:12.056Z,100748.91
2022-10-23T21:02:38.712Z,100757.19
2022-10-23T21:05:05.827Z,100758.22
2022-10-23T21:07:32.402Z,100751.59
2022-10-23T21:09:59.422Z,100757.25
2022-10-23T21:12:26.033Z,100753.94
2022-10-23T21:14:53.622Z,100745.31
2022-10-23T21:17:20.944Z,100733.28
2022-10-23T21:19:47.660Z,100750.72
2022-10-23T21:22:14.262Z,100708.59
2022-10-23T21:24:40.900Z,100728.44
2022-10-23T21:27:07.553Z,100752.50
2022-10-23T21:29:34.354Z,100738.91
2022-10-23T21:32:01.776Z,100736.03
2022-10-23T21:34:29.785Z,100742.00
2022-10-23T21:37:13.520Z,100740.34
2022-10-23T21:39:44.657Z,100743.91
2022-10-23T21:42:12.635Z,100740.16
2022-10-23T21:44:39.278Z,100750.63
2022-10-23T21:47:06.023Z,100739.44
2022-10-23T21:49:32.593Z,100716.09
2022-10-23T21:51:59.193Z,100736.78
2022-10-23T21:54:25.830Z,100736.84
2022-10-23T21:56:55.694Z,100753.06
2022-10-23T21:59:24.319Z,100749.25
2022-10-23T22:01:52.058Z,100720.75
2022-10-23T22:04:19.908Z,100744.84
2022-10-23T22:06:48.421Z,100711.09
2022-10-23T22:09:17.844Z,100739.50
2022-10-23T22:11:44.506Z,100712.38
2022-10-23T22:14:11.106Z,100712.63
2022-10-23T22:16:37.977Z,100727.44
2022-10-23T22:19:04.638Z,100727.31
2022-10-23T22:21:31.714Z,100715.22
2022-10-23T22:24:00.267Z,100718.66
2022-10-23T22:26:30.379Z,100727.84
2022-10-23T22:28:59.842Z,100728.69
2022-10-23T22:31:30.137Z,100718.84
2022-10-23T22:33:57.285Z,100719.09
2022-10-23T22:36:24.844Z,100700.91
2022-10-23T22:38:51.620Z,100705.13
2022-10-23T22:41:18.459Z,100703.19
2022-10-23T22:43:45.100Z,100704.72
2022-10-23T22:46:11.648Z,100720.19
2022-10-23T22:48:38.568Z,100723.69
2022-10-23T22:51:08.869Z,100707.09
2022-10-23T22:53:35.922Z,100709.56
2022-10-23T22:56:06.783Z,100692.38
2022-10-23T22:58:33.400Z,100695.81
2022-10-23T23:01:09.107Z,100700.84
2022-10-23T23:03:37.165Z,100700.72
2022-10-23T23:06:05.633Z,100704.94
2022-10-23T23:08:33.924Z,100701.38
2022-10-23T23:11:01.328Z,100692.47
2022-10-23T23:13:28.448Z,100673.84
2022-10-23T23:15:55.669Z,100695.41
2022-10-23T23:18:22.888Z,100649.88
2022-10-23T23:20:50.096Z,100686.81
2022-10-23T23:23:17.751Z,100691.91
2022-10-23T23:25:49.033Z,100701.28
2022-10-23T23:28:19.003Z,100692.84
2022-10-23T23:33:23.189Z,100679.88
2022-10-23T23:35:49.798Z,100655.41
2022-10-23T23:38:16.391Z,100687.19
2022-10-23T23:40:51.930Z,100702.06
2022-10-23T23:43:18.775Z,100702.56
2022-10-23T23:45:45.772Z,100675.50
2022-10-23T23:48:15.072Z,100681.16
2022-10-23T23:50:42.426Z,100711.69
2022-10-23T23:53:12.170Z,100658.63
2022-10-23T23:55:38.909Z,100701.13
2022-10-23T23:58:05.619Z,100691.09
